sensor_id;sensor_type;location;lat;lon;timestamp;temperature;humidity
29413;DHT22;16389;50.126;8.450;2023-04-03T00:02:15;5.20;99.90
29413;DHT22;16389;50.126;8.450;2023-04-03T00:04:40;5.20;99.90
29413;DHT22;16389;50.126;8.450;2023-04-03T00:07:06;5.20;99.90
29413;DHT22;16389;50.126;8.450;2023-04-03T00:09:31;5.20;99.90
29413;DHT22;16389;50.126;8.450;2023-04-03T00:11:57;5.20;99.90
29413;DHT22;16389;50.126;8.450;2023-04-03T00:14:22;5.30;99.90
29413;DHT22;16389;50.126;8.450;2023-04-03T00:16:49;5.30;99.90
29413;DHT22;16389;50.126;8.450;2023-04-03T00:19:15;5.30;99.90
29413;DHT22;16389;50.126;8.450;2023-04-03T00:21:40;5.30;99.90
29413;DHT22;16389;50.126;8.450;2023-04-03T00:24:06;5.30;99.90
29413;DHT22;16389;50.126;8.450;2023-04-03T00:26:31;5.40;99.90
29413;DHT22;16389;50.126;8.450;2023-04-03T00:28:57;5.40;99.90
29413;DHT22;16389;50.126;8.450;2023-04-03T00:31:22;5.40;99.90
29413;DHT22;16389;50.126;8.450;2023-04-03T00:33:48;5.50;99.90
29413;DHT22;16389;50.126;8.450;2023-04-03T00:36:13;5.50;99.90
29413;DHT22;16389;50.126;8.450;2023-04-03T00:38:39;5.50;99.90
29413;DHT22;16389;50.126;8.450;2023-04-03T00:41:05;5.60;99.90
29413;DHT22;16389;50.126;8.450;2023-04-03T00:43:30;5.60;99.90
29413;DHT22;16389;50.126;8.450;2023-04-03T00:45:57;5.60;99.90
29413;DHT22;16389;50.126;8.450;2023-04-03T00:48:27;5.60;99.90
29413;DHT22;16389;50.126;8.450;2023-04-03T00:50:53;5.60;99.90
29413;DHT22;16389;50.126;8.450;2023-04-03T00:53:22;5.60;99.90
29413;DHT22;16389;50.126;8.450;2023-04-03T00:55:48;5.60;99.90
29413;DHT22;16389;50.126;8.450;2023-04-03T00:58:15;5.70;99.90
29413;DHT22;16389;50.126;8.450;2023-04-03T01:00:42;5.70;99.90
29413;DHT22;16389;50.126;8.450;2023-04-03T01:03:08;5.70;99.90
29413;DHT22;16389;50.126;8.450;2023-04-03T01:05:33;5.70;99.90
29413;DHT22;16389;50.126;8.450;2023-04-03T01:07:59;5.70;99.90
29413;DHT22;16389;50.126;8.450;2023-04-03T01:10:25;5.80;99.90
29413;DHT22;16389;50.126;8.450;2023-04-03T01:12:51;5.70;99.90
29413;DHT22;16389;50.126;8.450;2023-04-03T01:15:18;5.70;99.90
29413;DHT22;16389;50.126;8.450;2023-04-03T01:17:46;5.60;99.90
29413;DHT22;16389;50.126;8.450;2023-04-03T01:22:59;5.60;99.90
29413;DHT22;16389;50.126;8.450;2023-04-03T01:25:28;5.60;99.90
29413;DHT22;16389;50.126;8.450;2023-04-03T01:27:54;5.60;99.90
29413;DHT22;16389;50.126;8.450;2023-04-03T01:30:20;5.60;99.90
29413;DHT22;16389;50.126;8.450;2023-04-03T01:32:46;5.70;99.90
29413;DHT22;16389;50.126;8.450;2023-04-03T01:35:12;5.70;99.90
29413;DHT22;16389;50.126;8.450;2023-04-03T01:37:37;5.60;99.90
29413;DHT22;16389;50.126;8.450;2023-04-03T01:40:03;5.60;99.90
29413;DHT22;16389;50.126;8.450;2023-04-03T01:42:29;5.60;99.90
29413;DHT22;16389;50.126;8.450;2023-04-03T01:44:55;5.60;99.90
29413;DHT22;16389;50.126;8.450;2023-04-03T01:47:21;5.60;99.90
29413;DHT22;16389;50.126;8.450;2023-04-03T01:49:46;5.60;99.90
29413;DHT22;16389;50.126;8.450;2023-04-03T01:52:12;5.60;99.90
29413;DHT22;16389;50.126;8.450;2023-04-03T01:54:37;5.60;99.90
29413;DHT22;16389;50.126;8.450;2023-04-03T01:57:03;5.60;99.90
29413;DHT22;16389;50.126;8.450;2023-04-03T01:59:28;5.60;99.90
29413;DHT22;16389;50.126;8.450;2023-04-03T02:01:54;5.60;99.90
29413;DHT22;16389;50.126;8.450;2023-04-03T02:04:19;5.60;99.90
29413;DHT22;16389;50.126;8.450;2023-04-03T02:06:45;5.60;99.90
29413;DHT22;16389;50.126;8.450;2023-04-03T02:09:10;5.60;99.90
29413;DHT22;16389;50.126;8.450;2023-04-03T02:11:36;5.60;99.90
29413;DHT22;16389;50.126;8.450;2023-04-03T02:14:02;5.50;99.90
29413;DHT22;16389;50.126;8.450;2023-04-03T02:16:27;5.50;99.90
29413;DHT22;16389;50.126;8.450;2023-04-03T02:18:54;5.60;99.90
29413;DHT22;16389;50.126;8.450;2023-04-03T02:21:19;5.50;99.90
29413;DHT22;16389;50.126;8.450;2023-04-03T02:23:45;5.50;99.90
29413;DHT22;16389;50.126;8.450;2023-04-03T02:26:12;5.50;99.90
29413;DHT22;16389;50.126;8.450;2023-04-03T02:28:37;5.40;99.90
29413;DHT22;16389;50.126;8.450;2023-04-03T02:31:03;5.50;99.90
29413;DHT22;16389;50.126;8.450;2023-04-03T02:33:31;5.50;99.90
29413;DHT22;16389;50.126;8.450;2023-04-03T02:35:57;5.50;99.90
29413;DHT22;16389;50.126;8.450;2023-04-03T02:38:23;5.40;99.90
29413;DHT22;16389;50.126;8.450;2023-04-03T02:40:48;5.40;99.90
29413;DHT22;16389;50.126;8.450;2023-04-03T02:43:14;5.40;99.90
29413;DHT22;16389;50.126;8.450;2023-04-03T02:45:40;5.40;99.90
29413;DHT22;16389;50.126;8.450;2023-04-03T02:48:05;5.40;99.90
29413;DHT22;16389;50.126;8.450;2023-04-03T02:50:31;5.40;99.90
29413;DHT22;16389;50.126;8.450;2023-04-03T02:52:56;5.30;99.90
29413;DHT22;16389;50.126;8.450;2023-04-03T02:55:22;5.30;99.90
29413;DHT22;16389;50.126;8.450;2023-04-03T02:57:47;5.30;99.90
29413;DHT22;16389;50.126;8.450;2023-04-03T03:00:13;5.30;99.90
29413;DHT22;16389;50.126;8.450;2023-04-03T03:02:39;5.30;99.90
29413;DHT22;16389;50.126;8.450;2023-04-03T03:05:05;5.30;99.90
29413;DHT22;16389;50.126;8.450;2023-04-03T03:07:31;5.20;99.90
29413;DHT22;16389;50.126;8.450;2023-04-03T03:09:56;5.20;99.90
29413;DHT22;16389;50.126;8.450;2023-04-03T03:12:22;5.10;99.90
29413;DHT22;16389;50.126;8.450;2023-04-03T03:14:49;5.10;99.90
29413;DHT22;16389;50.126;8.450;2023-04-03T03:17:14;5.00;99.90
29413;DHT22;16389;50.126;8.450;2023-04-03T03:19:40;5.00;99.90
29413;DHT22;16389;50.126;8.450;2023-04-03T03:22:05;4.90;99.90
29413;DHT22;16389;50.126;8.450;2023-04-03T03:24:31;4.90;99.90
29413;DHT22;16389;50.126;8.450;2023-04-03T03:26:56;4.90;99.90
29413;DHT22;16389;50.126;8.450;2023-04-03T03:29:22;4.80;99.90
29413;DHT22;16389;50.126;8.450;2023-04-03T03:31:47;4.80;99.90
29413;DHT22;16389;50.126;8.450;2023-04-03T03:34:13;4.70;99.90
29413;DHT22;16389;50.126;8.450;2023-04-03T03:36:38;4.70;99.90
29413;DHT22;16389;50.126;8.450;2023-04-03T03:39:04;4.70;99.90
29413;DHT22;16389;50.126;8.450;2023-04-03T03:41:29;4.70;99.90
29413;DHT22;16389;50.126;8.450;2023-04-03T03:43:55;4.70;99.90
29413;DHT22;16389;50.126;8.450;2023-04-03T03:46:21;4.70;99.90
29413;DHT22;16389;50.126;8.450;2023-04-03T03:48:46;4.50;99.90
29413;DHT22;16389;50.126;8.450;2023-04-03T03:51:12;4.50;99.90
29413;DHT22;16389;50.126;8.450;2023-04-03T03:53:37;4.50;99.90
29413;DHT22;16389;50.126;8.450;2023-04-03T03:56:03;4.40;99.90
29413;DHT22;16389;50.126;8.450;2023-04-03T03:58:29;4.40;99.90
29413;DHT22;16389;50.126;8.450;2023-04-03T04:00:54;4.30;99.90
29413;DHT22;16389;50.126;8.450;2023-04-03T04:03:20;4.20;99.90
29413;DHT22;16389;50.126;8.450;2023-04-03T04:05:46;4.10;99.90
29413;DHT22;16389;50.126;8.450;2023-04-03T04:08:11;4.10;99.90
29413;DHT22;16389;50.126;8.450;2023-04-03T04:10:37;4.00;99.90
29413;DHT22;16389;50.126;8.450;2023-04-03T04:13:03;3.90;99.90
29413;DHT22;16389;50.126;8.450;2023-04-03T04:15:28;3.90;99.90
29413;DHT22;16389;50.126;8.450;2023-04-03T04:17:54;3.90;99.90
29413;DHT22;16389;50.126;8.450;2023-04-03T04:20:20;3.80;99.90
29413;DHT22;16389;50.126;8.450;2023-04-03T04:22:45;3.70;99.90
29413;DHT22;16389;50.126;8.450;2023-04-03T04:25:11;3.70;99.90
29413;DHT22;16389;50.126;8.450;2023-04-03T04:27:36;3.60;99.90
29413;DHT22;16389;50.126;8.450;2023-04-03T04:30:03;3.60;99.90
29413;DHT22;16389;50.126;8.450;2023-04-03T04:32:29;3.60;99.90
29413;DHT22;16389;50.126;8.450;2023-04-03T04:34:54;3.60;99.90
29413;DHT22;16389;50.126;8.450;2023-04-03T04:37:20;3.60;99.90
29413;DHT22;16389;50.126;8.450;2023-04-03T04:39:46;3.60;99.90
29413;DHT22;16389;50.126;8.450;2023-04-03T04:42:11;3.60;99.90
29413;DHT22;16389;50.126;8.450;2023-04-03T04:44:38;3.50;99.90
29413;DHT22;16389;50.126;8.450;2023-04-03T04:47:03;3.60;99.90
29413;DHT22;16389;50.126;8.450;2023-04-03T04:49:29;3.50;99.90
29413;DHT22;16389;50.126;8.450;2023-04-03T04:51:55;3.40;99.90
29413;DHT22;16389;50.126;8.450;2023-04-03T04:54:20;3.40;99.90
29413;DHT22;16389;50.126;8.450;2023-04-03T04:56:46;3.30;99.90
29413;DHT22;16389;50.126;8.450;2023-04-03T04:59:12;3.30;99.90
29413;DHT22;16389;50.126;8.450;2023-04-03T05:01:37;3.30;99.90
29413;DHT22;16389;50.126;8.450;2023-04-03T05:04:03;3.20;99.90
29413;DHT22;16389;50.126;8.450;2023-04-03T05:06:28;3.20;99.90
29413;DHT22;16389;50.126;8.450;2023-04-03T05:08:55;3.20;99.90
29413;DHT22;16389;50.126;8.450;2023-04-03T05:11:21;3.20;99.90
29413;DHT22;16389;50.126;8.450;2023-04-03T05:13:46;3.20;99.90
29413;DHT22;16389;50.126;8.450;2023-04-03T05:16:12;3.20;99.90
29413;DHT22;16389;50.126;8.450;2023-04-03T05:18:37;3.10;99.90
29413;DHT22;16389;50.126;8.450;2023-04-03T05:21:03;3.10;99.90
29413;DHT22;16389;50.126;8.450;2023-04-03T05:23:28;3.20;99.90
29413;DHT22;16389;50.126;8.450;2023-04-03T05:25:54;3.20;99.90
29413;DHT22;16389;50.126;8.450;2023-04-03T05:28:19;3.30;99.90
29413;DHT22;16389;50.126;8.450;2023-04-03T05:30:45;3.40;99.90
29413;DHT22;16389;50.126;8.450;2023-04-03T05:33:10;3.30;99.90
29413;DHT22;16389;50.126;8.450;2023-04-03T05:35:37;3.30;99.90
29413;DHT22;16389;50.126;8.450;2023-04-03T05:38:05;3.20;99.90
29413;DHT22;16389;50.126;8.450;2023-04-03T05:40:31;3.20;99.90
29413;DHT22;16389;50.126;8.450;2023-04-03T05:42:56;3.30;99.90
29413;DHT22;16389;50.126;8.450;2023-04-03T05:45:22;3.30;99.90
29413;DHT22;16389;50.126;8.450;2023-04-03T05:47:47;3.40;99.90
29413;DHT22;16389;50.126;8.450;2023-04-03T05:50:13;3.40;99.90
29413;DHT22;16389;50.126;8.450;2023-04-03T05:52:40;3.30;99.90
29413;DHT22;16389;50.126;8.450;2023-04-03T05:55:07;3.40;99.90
29413;DHT22;16389;50.126;8.450;2023-04-03T05:57:33;3.40;99.90
29413;DHT22;16389;50.126;8.450;2023-04-03T05:59:59;3.30;99.90
29413;DHT22;16389;50.126;8.450;2023-04-03T06:02:24;3.30;99.90
29413;DHT22;16389;50.126;8.450;2023-04-03T06:04:51;3.40;99.90
29413;DHT22;16389;50.126;8.450;2023-04-03T06:07:18;3.40;99.90
29413;DHT22;16389;50.126;8.450;2023-04-03T06:09:46;3.40;99.90
29413;DHT22;16389;50.126;8.450;2023-04-03T06:12:12;3.50;99.90
29413;DHT22;16389;50.126;8.450;2023-04-03T06:14:37;3.50;99.90
29413;DHT22;16389;50.126;8.450;2023-04-03T06:17:03;3.60;99.90
29413;DHT22;16389;50.126;8.450;2023-04-03T06:19:29;3.70;99.90
29413;DHT22;16389;50.126;8.450;2023-04-03T06:21:55;3.70;99.90
29413;DHT22;16389;50.126;8.450;2023-04-03T06:24:20;3.80;99.90
29413;DHT22;16389;50.126;8.450;2023-04-03T06:26:48;3.90;99.90
29413;DHT22;16389;50.126;8.450;2023-04-03T06:29:14;4.00;99.90
29413;DHT22;16389;50.126;8.450;2023-04-03T06:31:39;4.10;99.90
29413;DHT22;16389;50.126;8.450;2023-04-03T06:34:05;4.20;99.90
29413;DHT22;16389;50.126;8.450;2023-04-03T06:36:32;4.30;99.90
29413;DHT22;16389;50.126;8.450;2023-04-03T06:38:58;4.40;99.90
29413;DHT22;16389;50.126;8.450;2023-04-03T06:41:23;4.40;99.90
29413;DHT22;16389;50.126;8.450;2023-04-03T06:43:49;4.50;99.90
29413;DHT22;16389;50.126;8.450;2023-04-03T06:46:18;4.50;99.90
29413;DHT22;16389;50.126;8.450;2023-04-03T06:48:44;4.50;99.90
29413;DHT22;16389;50.126;8.450;2023-04-03T06:51:24;4.50;99.90
29413;DHT22;16389;50.126;8.450;2023-04-03T06:53:50;4.70;99.90
29413;DHT22;16389;50.126;8.450;2023-04-03T06:56:16;4.70;99.90
29413;DHT22;16389;50.126;8.450;2023-04-03T06:58:41;4.70;99.90
29413;DHT22;16389;50.126;8.450;2023-04-03T07:04:04;4.80;99.90
29413;DHT22;16389;50.126;8.450;2023-04-03T07:06:29;4.90;99.90
29413;DHT22;16389;50.126;8.450;2023-04-03T07:08:56;5.00;99.90
29413;DHT22;16389;50.126;8.450;2023-04-03T07:11:21;5.10;99.90
29413;DHT22;16389;50.126;8.450;2023-04-03T07:13:47;5.20;99.90
29413;DHT22;16389;50.126;8.450;2023-04-03T07:16:13;5.30;99.90
29413;DHT22;16389;50.126;8.450;2023-04-03T07:18:39;5.40;99.90
29413;DHT22;16389;50.126;8.450;2023-04-03T07:21:04;5.50;99.90
29413;DHT22;16389;50.126;8.450;2023-04-03T07:23:30;5.60;99.90
29413;DHT22;16389;50.126;8.450;2023-04-03T07:25:55;5.60;99.90
29413;DHT22;16389;50.126;8.450;2023-04-03T07:28:21;5.60;99.90
29413;DHT22;16389;50.126;8.450;2023-04-03T07:30:52;5.70;99.90
29413;DHT22;16389;50.126;8.450;2023-04-03T07:33:18;5.80;99.90
29413;DHT22;16389;50.126;8.450;2023-04-03T07:35:44;5.80;99.90
29413;DHT22;16389;50.126;8.450;2023-04-03T07:38:10;5.90;99.90
29413;DHT22;16389;50.126;8.450;2023-04-03T07:40:36;6.10;99.90
29413;DHT22;16389;50.126;8.450;2023-04-03T07:43:02;6.10;99.90
29413;DHT22;16389;50.126;8.450;2023-04-03T07:45:28;6.30;99.90
29413;DHT22;16389;50.126;8.450;2023-04-03T07:47:54;6.50;99.90
29413;DHT22;16389;50.126;8.450;2023-04-03T07:50:20;6.50;99.90
29413;DHT22;16389;50.126;8.450;2023-04-03T07:52:46;6.50;99.90
29413;DHT22;16389;50.126;8.450;2023-04-03T07:55:11;6.50;99.90
29413;DHT22;16389;50.126;8.450;2023-04-03T07:57:37;6.60;99.90
29413;DHT22;16389;50.126;8.450;2023-04-03T08:00:03;6.70;99.90
29413;DHT22;16389;50.126;8.450;2023-04-03T08:02:30;6.90;99.90
29413;DHT22;16389;50.126;8.450;2023-04-03T08:04:59;7.00;99.90
29413;DHT22;16389;50.126;8.450;2023-04-03T08:07:25;7.00;99.90
29413;DHT22;16389;50.126;8.450;2023-04-03T08:09:51;7.00;99.90
29413;DHT22;16389;50.126;8.450;2023-04-03T08:12:16;6.90;99.90
29413;DHT22;16389;50.126;8.450;2023-04-03T08:14:42;6.90;99.90
29413;DHT22;16389;50.126;8.450;2023-04-03T08:17:07;6.80;99.90
29413;DHT22;16389;50.126;8.450;2023-04-03T08:19:37;7.00;99.90
29413;DHT22;16389;50.126;8.450;2023-04-03T08:22:02;7.10;99.90
29413;DHT22;16389;50.126;8.450;2023-04-03T08:24:28;7.10;99.90
29413;DHT22;16389;50.126;8.450;2023-04-03T08:26:54;7.30;99.90
29413;DHT22;16389;50.126;8.450;2023-04-03T08:29:20;7.30;99.90
29413;DHT22;16389;50.126;8.450;2023-04-03T08:31:46;7.30;99.90
29413;DHT22;16389;50.126;8.450;2023-04-03T08:34:12;7.40;99.90
29413;DHT22;16389;50.126;8.450;2023-04-03T08:36:38;7.50;99.90
29413;DHT22;16389;50.126;8.450;2023-04-03T08:39:03;7.50;99.90
29413;DHT22;16389;50.126;8.450;2023-04-03T08:41:31;7.70;99.90
29413;DHT22;16389;50.126;8.450;2023-04-03T08:46:25;7.90;99.90
29413;DHT22;16389;50.126;8.450;2023-04-03T08:48:53;8.00;99.90
29413;DHT22;16389;50.126;8.450;2023-04-03T08:51:19;8.00;99.90
29413;DHT22;16389;50.126;8.450;2023-04-03T08:53:55;8.10;99.90
29413;DHT22;16389;50.126;8.450;2023-04-03T08:56:21;8.20;99.90
29413;DHT22;16389;50.126;8.450;2023-04-03T08:58:58;8.20;99.90
29413;DHT22;16389;50.126;8.450;2023-04-03T09:01:26;8.40;99.90
29413;DHT22;16389;50.126;8.450;2023-04-03T09:03:53;8.40;99.90
29413;DHT22;16389;50.126;8.450;2023-04-03T09:06:29;8.60;99.90
29413;DHT22;16389;50.126;8.450;2023-04-03T09:09:06;8.40;99.90
29413;DHT22;16389;50.126;8.450;2023-04-03T09:14:07;8.70;99.90
29413;DHT22;16389;50.126;8.450;2023-04-03T09:19:22;9.00;99.90
29413;DHT22;16389;50.126;8.450;2023-04-03T09:21:51;9.10;99.90
29413;DHT22;16389;50.126;8.450;2023-04-03T09:24:16;9.10;99.90
29413;DHT22;16389;50.126;8.450;2023-04-03T09:26:44;9.30;99.90
29413;DHT22;16389;50.126;8.450;2023-04-03T09:29:14;9.50;99.90
29413;DHT22;16389;50.126;8.450;2023-04-03T09:31:42;9.50;99.90
29413;DHT22;16389;50.126;8.450;2023-04-03T09:37:08;9.90;99.90
29413;DHT22;16389;50.126;8.450;2023-04-03T09:39:50;9.90;99.90
29413;DHT22;16389;50.126;8.450;2023-04-03T09:42:18;10.20;99.90
29413;DHT22;16389;50.126;8.450;2023-04-03T09:44:44;10.20;98.20
29413;DHT22;16389;50.126;8.450;2023-04-03T09:49:43;10.00;97.90
29413;DHT22;16389;50.126;8.450;2023-04-03T09:52:19;10.10;98.60
29413;DHT22;16389;50.126;8.450;2023-04-03T09:54:45;10.20;98.40
29413;DHT22;16389;50.126;8.450;2023-04-03T09:57:12;10.20;98.70
29413;DHT22;16389;50.126;8.450;2023-04-03T09:59:40;10.00;98.60
29413;DHT22;16389;50.126;8.450;2023-04-03T10:02:27;10.20;99.90
29413;DHT22;16389;50.126;8.450;2023-04-03T10:04:54;10.70;98.80
29413;DHT22;16389;50.126;8.450;2023-04-03T10:07:36;11.00;98.40
29413;DHT22;16389;50.126;8.450;2023-04-03T10:10:16;11.10;98.30
29413;DHT22;16389;50.126;8.450;2023-04-03T10:12:43;11.30;97.10
29413;DHT22;16389;50.126;8.450;2023-04-03T10:15:15;11.50;95.90
29413;DHT22;16389;50.126;8.450;2023-04-03T10:26:08;12.40;93.60
29413;DHT22;16389;50.126;8.450;2023-04-03T10:31:13;11.90;92.70
29413;DHT22;16389;50.126;8.450;2023-04-03T10:33:47;11.80;93.10
29413;DHT22;16389;50.126;8.450;2023-04-03T10:41:20;12.20;92.90
29413;DHT22;16389;50.126;8.450;2023-04-03T10:50:36;14.10;86.40
29413;DHT22;16389;50.126;8.450;2023-04-03T10:58:25;14.70;80.40
29413;DHT22;16389;50.126;8.450;2023-04-03T11:00:52;14.00;79.60
29413;DHT22;16389;50.126;8.450;2023-04-03T11:03:28;14.40;82.80
29413;DHT22;16389;50.126;8.450;2023-04-03T11:05:56;14.20;80.90
29413;DHT22;16389;50.126;8.450;2023-04-03T11:08:33;13.70;80.30
29413;DHT22;16389;50.126;8.450;2023-04-03T11:11:03;13.10;81.80
29413;DHT22;16389;50.126;8.450;2023-04-03T11:13:50;13.50;82.10
29413;DHT22;16389;50.126;8.450;2023-04-03T11:16:23;13.60;80.50
29413;DHT22;16389;50.126;8.450;2023-04-03T11:18:50;14.40;82.70
29413;DHT22;16389;50.126;8.450;2023-04-03T11:21:19;15.80;76.90
29413;DHT22;16389;50.126;8.450;2023-04-03T11:23:46;15.70;75.40
29413;DHT22;16389;50.126;8.450;2023-04-03T11:26:13;16.10;74.40
29413;DHT22;16389;50.126;8.450;2023-04-03T11:28:40;17.10;72.30
29413;DHT22;16389;50.126;8.450;2023-04-03T11:31:18;18.10;69.00
29413;DHT22;16389;50.126;8.450;2023-04-03T11:34:05;18.80;65.20
29413;DHT22;16389;50.126;8.450;2023-04-03T11:36:34;19.70;64.20
29413;DHT22;16389;50.126;8.450;2023-04-03T11:39:08;20.60;59.90
29413;DHT22;16389;50.126;8.450;2023-04-03T11:41:35;20.60;59.00
29413;DHT22;16389;50.126;8.450;2023-04-03T11:51:55;22.40;51.50
29413;DHT22;16389;50.126;8.450;2023-04-03T11:54:35;21.80;51.20
29413;DHT22;16389;50.126;8.450;2023-04-03T11:57:16;22.20;52.00
29413;DHT22;16389;50.126;8.450;2023-04-03T11:59:46;22.60;49.40
29413;DHT22;16389;50.126;8.450;2023-04-03T12:02:34;22.50;48.70
29413;DHT22;16389;50.126;8.450;2023-04-03T12:07:44;23.00;48.40
29413;DHT22;16389;50.126;8.450;2023-04-03T12:10:30;23.70;47.80
29413;DHT22;16389;50.126;8.450;2023-04-03T12:12:56;24.30;45.70
29413;DHT22;16389;50.126;8.450;2023-04-03T12:15:24;24.90;46.00
29413;DHT22;16389;50.126;8.450;2023-04-03T12:17:50;25.30;45.30
29413;DHT22;16389;50.126;8.450;2023-04-03T12:25:47;24.90;43.70
29413;DHT22;16389;50.126;8.450;2023-04-03T12:28:15;25.60;44.20
29413;DHT22;16389;50.126;8.450;2023-04-03T12:30:40;25.80;42.00
29413;DHT22;16389;50.126;8.450;2023-04-03T12:35:36;26.60;42.70
29413;DHT22;16389;50.126;8.450;2023-04-03T12:40:43;26.00;40.30
29413;DHT22;16389;50.126;8.450;2023-04-03T12:48:39;26.70;40.00
29413;DHT22;16389;50.126;8.450;2023-04-03T12:51:17;26.70;38.70
29413;DHT22;16389;50.126;8.450;2023-04-03T12:53:43;27.00;39.90
29413;DHT22;16389;50.126;8.450;2023-04-03T12:56:21;27.30;38.40
29413;DHT22;16389;50.126;8.450;2023-04-03T12:58:48;27.30;39.70
29413;DHT22;16389;50.126;8.450;2023-04-03T13:01:15;26.90;38.40
29413;DHT22;16389;50.126;8.450;2023-04-03T13:03:48;26.80;37.60
29413;DHT22;16389;50.126;8.450;2023-04-03T13:06:35;26.80;38.10
29413;DHT22;16389;50.126;8.450;2023-04-03T13:09:03;26.90;37.50
29413;DHT22;16389;50.126;8.450;2023-04-03T13:11:34;26.90;37.70
29413;DHT22;16389;50.126;8.450;2023-04-03T13:14:02;27.30;36.50
29413;DHT22;16389;50.126;8.450;2023-04-03T13:16:30;27.40;36.40
29413;DHT22;16389;50.126;8.450;2023-04-03T13:18:57;27.70;36.60
29413;DHT22;16389;50.126;8.450;2023-04-03T13:21:26;27.50;36.30
29413;DHT22;16389;50.126;8.450;2023-04-03T13:23:54;27.60;35.80
29413;DHT22;16389;50.126;8.450;2023-04-03T13:26:21;27.40;36.00
29413;DHT22;16389;50.126;8.450;2023-04-03T13:28:47;27.30;36.40
29413;DHT22;16389;50.126;8.450;2023-04-03T13:33:54;27.00;36.30
29413;DHT22;16389;50.126;8.450;2023-04-03T13:36:24;27.00;36.50
29413;DHT22;16389;50.126;8.450;2023-04-03T13:39:05;27.50;36.50
29413;DHT22;16389;50.126;8.450;2023-04-03T13:43:56;26.40;35.50
29413;DHT22;16389;50.126;8.450;2023-04-03T13:46:24;26.30;36.80
29413;DHT22;16389;50.126;8.450;2023-04-03T13:48:50;26.00;36.60
29413;DHT22;16389;50.126;8.450;2023-04-03T13:51:26;26.70;36.20
29413;DHT22;16389;50.126;8.450;2023-04-03T13:53:56;27.60;36.40
29413;DHT22;16389;50.126;8.450;2023-04-03T13:56:25;28.00;35.40
29413;DHT22;16389;50.126;8.450;2023-04-03T13:58:53;28.30;35.40
29413;DHT22;16389;50.126;8.450;2023-04-03T14:01:20;28.10;34.30
29413;DHT22;16389;50.126;8.450;2023-04-03T14:03:51;28.40;34.80
29413;DHT22;16389;50.126;8.450;2023-04-03T14:06:17;28.60;34.00
29413;DHT22;16389;50.126;8.450;2023-04-03T14:08:43;28.50;33.40
29413;DHT22;16389;50.126;8.450;2023-04-03T14:11:11;28.80;33.40
29413;DHT22;16389;50.126;8.450;2023-04-03T14:13:37;28.50;34.70
29413;DHT22;16389;50.126;8.450;2023-04-03T14:16:03;28.10;34.20
29413;DHT22;16389;50.126;8.450;2023-04-03T14:18:29;27.70;33.60
29413;DHT22;16389;50.126;8.450;2023-04-03T14:20:54;27.60;33.80
29413;DHT22;16389;50.126;8.450;2023-04-03T14:23:20;27.90;34.00
29413;DHT22;16389;50.126;8.450;2023-04-03T14:25:46;28.00;33.80
29413;DHT22;16389;50.126;8.450;2023-04-03T14:28:19;27.80;33.60
29413;DHT22;16389;50.126;8.450;2023-04-03T14:30:46;28.30;33.80
29413;DHT22;16389;50.126;8.450;2023-04-03T14:33:16;28.60;34.00
29413;DHT22;16389;50.126;8.450;2023-04-03T14:35:44;28.80;33.50
29413;DHT22;16389;50.126;8.450;2023-04-03T14:38:20;29.10;33.60
29413;DHT22;16389;50.126;8.450;2023-04-03T14:40:45;29.20;33.40
29413;DHT22;16389;50.126;8.450;2023-04-03T14:43:12;28.80;34.50
29413;DHT22;16389;50.126;8.450;2023-04-03T14:45:38;28.20;34.10
29413;DHT22;16389;50.126;8.450;2023-04-03T14:48:03;28.40;33.90
29413;DHT22;16389;50.126;8.450;2023-04-03T14:50:29;26.80;34.00
29413;DHT22;16389;50.126;8.450;2023-04-03T14:52:56;26.10;35.20
29413;DHT22;16389;50.126;8.450;2023-04-03T14:55:23;26.60;35.20
29413;DHT22;16389;50.126;8.450;2023-04-03T14:57:49;26.90;33.90
29413;DHT22;16389;50.126;8.450;2023-04-03T15:00:16;27.20;33.70
29413;DHT22;16389;50.126;8.450;2023-04-03T15:02:41;27.50;34.20
29413;DHT22;16389;50.126;8.450;2023-04-03T15:05:08;27.80;34.60
29413;DHT22;16389;50.126;8.450;2023-04-03T15:07:35;27.70;33.60
29413;DHT22;16389;50.126;8.450;2023-04-03T15:10:02;27.80;34.30
29413;DHT22;16389;50.126;8.450;2023-04-03T15:12:28;27.80;34.10
29413;DHT22;16389;50.126;8.450;2023-04-03T15:14:54;28.10;33.60
29413;DHT22;16389;50.126;8.450;2023-04-03T15:17:21;27.80;33.20
29413;DHT22;16389;50.126;8.450;2023-04-03T15:19:47;27.90;32.60
29413;DHT22;16389;50.126;8.450;2023-04-03T15:22:13;28.00;32.00
29413;DHT22;16389;50.126;8.450;2023-04-03T15:24:39;28.00;31.50
29413;DHT22;16389;50.126;8.450;2023-04-03T15:27:05;27.70;32.40
29413;DHT22;16389;50.126;8.450;2023-04-03T15:29:31;28.10;32.90
29413;DHT22;16389;50.126;8.450;2023-04-03T15:31:56;27.90;33.00
29413;DHT22;16389;50.126;8.450;2023-04-03T15:34:22;27.70;32.80
29413;DHT22;16389;50.126;8.450;2023-04-03T15:36:47;27.70;32.80
29413;DHT22;16389;50.126;8.450;2023-04-03T15:39:13;27.90;34.30
29413;DHT22;16389;50.126;8.450;2023-04-03T15:41:38;27.60;33.50
29413;DHT22;16389;50.126;8.450;2023-04-03T15:44:03;27.30;33.60
29413;DHT22;16389;50.126;8.450;2023-04-03T15:46:29;27.10;33.00
29413;DHT22;16389;50.126;8.450;2023-04-03T15:48:55;26.70;33.60
29413;DHT22;16389;50.126;8.450;2023-04-03T15:51:20;26.00;33.10
29413;DHT22;16389;50.126;8.450;2023-04-03T15:53:46;25.90;34.20
29413;DHT22;16389;50.126;8.450;2023-04-03T15:56:11;25.60;34.80
29413;DHT22;16389;50.126;8.450;2023-04-03T15:58:37;25.70;34.30
29413;DHT22;16389;50.126;8.450;2023-04-03T16:01:02;26.00;34.20
29413;DHT22;16389;50.126;8.450;2023-04-03T16:03:28;26.00;34.00
29413;DHT22;16389;50.126;8.450;2023-04-03T16:05:53;26.20;33.80
29413;DHT22;16389;50.126;8.450;2023-04-03T16:08:19;26.00;33.20
29413;DHT22;16389;50.126;8.450;2023-04-03T16:10:45;25.70;33.80
29413;DHT22;16389;50.126;8.450;2023-04-03T16:13:12;25.70;33.90
29413;DHT22;16389;50.126;8.450;2023-04-03T16:15:37;25.50;34.10
29413;DHT22;16389;50.126;8.450;2023-04-03T16:18:03;24.40;34.90
29413;DHT22;16389;50.126;8.450;2023-04-03T16:20:29;23.60;34.60
29413;DHT22;16389;50.126;8.450;2023-04-03T16:22:55;22.00;36.30
29413;DHT22;16389;50.126;8.450;2023-04-03T16:25:21;20.30;38.20
29413;DHT22;16389;50.126;8.450;2023-04-03T16:27:46;18.10;40.90
29413;DHT22;16389;50.126;8.450;2023-04-03T16:30:12;16.80;43.80
29413;DHT22;16389;50.126;8.450;2023-04-03T16:32:37;15.70;45.90
29413;DHT22;16389;50.126;8.450;2023-04-03T16:35:04;14.50;47.50
29413;DHT22;16389;50.126;8.450;2023-04-03T16:37:29;13.30;49.80
29413;DHT22;16389;50.126;8.450;2023-04-03T16:39:55;12.40;50.30
29413;DHT22;16389;50.126;8.450;2023-04-03T16:42:20;11.70;51.90
29413;DHT22;16389;50.126;8.450;2023-04-03T16:44:46;11.10;54.20
29413;DHT22;16389;50.126;8.450;2023-04-03T16:47:12;10.50;55.20
29413;DHT22;16389;50.126;8.450;2023-04-03T16:49:39;10.10;56.80
29413;DHT22;16389;50.126;8.450;2023-04-03T16:52:04;9.80;57.60
29413;DHT22;16389;50.126;8.450;2023-04-03T16:54:30;9.50;58.90
29413;DHT22;16389;50.126;8.450;2023-04-03T16:56:56;9.10;59.30
29413;DHT22;16389;50.126;8.450;2023-04-03T16:59:22;9.00;58.60